Augusta, Arkansas
Current Conditions -  °F | °C
As of 7:56 AM on Friday 28 Nov 2014 (Local Time) from KSRC Reporting Station
Haze Haze  
Wind Chill: -5°   Ceiling: Unl
Heat Index: -2°   Visibility: 6mi
Dew Point: -2°   Wind: 5mph
Humidity: 100%   Direction: 170°S
Pressure: 30.38"   Gusts: NA
Location:  35.28°N, 91.37°W
Report Text: KSRC 281356Z AUTO 17004KT 6SM BR CLR M02/M02 A3038 RMK AO2 SLP295 T10221022 FZRANO TSNO
Loading
Personal Weather Stations






























Interactive Weather Map New forecast layout! Learn more

10-Day Weather Forecast

Advertisements
Track Severe Weather on mobile